No.3tokuyomaru — JD3132 — position and weather

sailwx.info

Track history (hours):
 
Tides and Currents Weather Stations Pressure Air Temp Water Temp Dewpoint Dewpoint Depression Visibility Wind Speed Wind Dir Waves Ship Positions

No.3tokuyomaru

Last reported at 2015-May-27 13:33 UTC. Time now 2015-May-27 13:58 UTC.
Position N 35°07' E 139°46'.

Length 67 m; draft 4.6 m.

Type: Tanker. MMSI: 431002151.

Date/timePositionNaut miles runAvg speedWind from/ knotsBaromVisibWave heightAir tempDewpointWater temp
2015-May-27 13:33N 35°07' E 139°46'1312.0
2015-May-27 12:26N 34°54' E 139°48'1312.6
2015-May-27 11:22N 34°56' E 140°04'66 9.1
2015-May-27 04:10N 35°55' E 140°41'4 0.4
2015-May-26 19:33N 35°58' E 140°43'1212.0
2015-May-26 18:32N 35°48' E 140°52'1211.6
2015-May-26 17:28N 35°36' E 140°52'1613.4
2015-May-26 16:15N 35°23' E 140°39'1213.7
2015-May-26 15:23N 35°14' E 140°30'1513.7
2015-May-26 14:16N 35°03' E 140°17'912.6
2015-May-26 13:33N 34°58' E 140°07'1711.5
2015-May-26 12:06N 34°54' E 139°48'611.8
2015-May-26 11:34N 34°59' E 139°43'1212.3
2015-May-26 10:33N 35°11' E 139°46'1212.2
2015-May-26 09:33N 35°23' E 139°42'7 6.5
2015-May-26 08:32N 35°29' E 139°45'0 0.0
2015-May-26 07:32N 35°29' E 139°45'0 0.0
2015-May-26 06:32N 35°29' E 139°45'0 0.1
2015-May-26 05:32N 35°29' E 139°45'2 2.0
2015-May-26 04:33N 35°30' E 139°47'1 1.2
2015-May-26 03:26N 35°31' E 139°46'0 0.0
2015-May-25 22:08N 35°31' E 139°46'2 3.9
2015-May-25 21:31N 35°29' E 139°48'0 0.0
2015-May-25 20:31N 35°29' E 139°48'3 2.8
2015-May-25 19:34N 35°27' E 139°47'1111.2
2015-May-25 18:34N 35°15' E 139°47'1412.4
2015-May-25 17:24N 35°01' E 139°44'20 9.3
2015-May-25 15:12N 34°60' E 140°09'2312.1
2015-May-25 13:16N 35°15' E 140°31'40 8.4
2015-May-25 08:29N 35°54' E 140°41'1 0.2
2015-May-25 00:24N 35°55' E 140°41'1 0.4
2015-May-24 21:07N 35°57' E 140°42'3 0.5
2015-May-24 15:20N 35°55' E 140°46'6711.4
2015-May-24 09:29N 34°57' E 140°05'22 7.4
2015-May-24 06:32N 35°13' E 139°47'1212.1
2015-May-24 05:33N 35°24' E 139°43'1312.9
2015-May-24 04:33N 35°31' E 139°57'5 5.0
2015-May-24 03:33N 35°31' E 140°03'0 0.0
2015-May-24 02:29N 35°31' E 140°03'0 0.0
2015-May-24 01:32N 35°31' E 140°03'0 0.0
2015-May-24 00:08N 35°31' E 140°03'1 1.3
2015-May-23 23:33N 35°31' E 140°02'5 5.1
2015-May-23 22:31N 35°29' E 139°56'0 0.0
2015-May-23 21:31N 35°29' E 139°56'5 4.8
2015-May-23 20:34N 35°27' E 139°51'1211.6
2015-May-23 19:33N 35°16' E 139°46'59 7.1
2015-May-23 11:19N 35°37' E 140°53'20 2.8
2015-May-23 04:11N 35°55' E 140°41'59 4.3
2015-May-22 14:31N 35°00' E 140°12'1413.4
2015-May-22 13:29N 34°53' E 139°57'1111.1
2015-May-22 12:28N 34°56' E 139°44'1112.0
2015-May-22 11:33N 35°07' E 139°45'1311.2
2015-May-22 10:25N 35°20' E 139°43'910.8
2015-May-22 09:33N 35°29' E 139°42'2 1.8
2015-May-22 08:20N 35°30' E 139°45'0 0.0
2015-May-22 07:26N 35°30' E 139°45'0 0.0
2015-May-22 05:08N 35°30' E 139°45'0 0.0
2015-May-22 04:05N 35°30' E 139°45'2 4.4
2015-May-22 03:34N 35°30' E 139°47'2 1.5
2015-May-22 02:32N 35°29' E 139°46'0 0.0
2015-May-22 01:29N 35°29' E 139°46'0 0.0
2015-May-22 00:32N 35°29' E 139°46'0 0.0
2015-May-21 23:32N 35°29' E 139°46'0 0.0
2015-May-21 22:32N 35°29' E 139°46'0 0.0
2015-May-21 21:29N 35°29' E 139°46'0 0.0
2015-May-21 20:32N 35°29' E 139°46'0 0.0
2015-May-21 19:32N 35°29' E 139°46'0 0.0
2015-May-21 18:29N 35°29' E 139°46'0 0.1
2015-May-21 17:32N 35°29' E 139°46'0 0.0
2015-May-21 16:29N 35°29' E 139°46'0 0.0
2015-May-21 15:32N 35°29' E 139°46'0 0.0
2015-May-21 14:32N 35°29' E 139°46'0 0.1
2015-May-21 13:32N 35°29' E 139°46'0 0.0
2015-May-21 12:29N 35°29' E 139°46'0 0.0
2015-May-21 11:32N 35°29' E 139°46'0 0.0
2015-May-21 10:32N 35°29' E 139°46'0 0.0
2015-May-21 09:32N 35°29' E 139°46'0 0.0
2015-May-21 08:32N 35°29' E 139°46'0 0.0
2015-May-21 07:29N 35°29' E 139°46'0 0.1
2015-May-21 06:33N 35°29' E 139°46'2 0.5
2015-May-21 02:19N 35°31' E 139°46'4 5.8
2015-May-21 01:33N 35°26' E 139°47'1010.4
2015-May-21 00:34N 35°16' E 139°46'1111.4
2015-May-20 23:33N 35°05' E 139°45'19 8.0
2015-May-20 21:13N 34°57' E 140°06'2612.2
2015-May-20 19:03N 35°14' E 140°31'1912.1
2015-May-20 17:29N 35°29' E 140°45'1112.1
2015-May-20 16:32N 35°38' E 140°54'1712.1
2015-May-20 15:08N 35°55' E 140°55'712.6
2015-May-20 14:32N 36°02' E 140°54'3712.5
2015-May-20 11:32N 36°40' E 141°00'87 2.5
2015-May-19 00:14N 35°16' E 140°32'2313.9
2015-May-18 22:33N 35°00' E 140°11'1313.3
2015-May-18 21:33N 34°53' E 139°57'  
Track history (hours):
 
Tides and Currents Weather Stations Pressure Air Temp Water Temp Dewpoint Dewpoint Depression Visibility Wind Speed Wind Dir Waves Ship Positions

No.3tokuyomaru

Last reported at 2015-May-27 13:33 UTC. Time now 2015-May-27 13:58 UTC.
Position N 35°07' E 139°46'.

Length 67 m; draft 4.6 m.

Type: Tanker. MMSI: 431002151.

Date/timePositionNaut miles runAvg speedWind from/ knotsBaromVisibWave heightAir tempDewpointWater temp
2015-May-27 13:33N 35°07' E 139°46'1312.0
2015-May-27 12:26N 34°54' E 139°48'1312.6
2015-May-27 11:22N 34°56' E 140°04'66 9.1
2015-May-27 04:10N 35°55' E 140°41'4 0.4
2015-May-26 19:33N 35°58' E 140°43'1212.0
2015-May-26 18:32N 35°48' E 140°52'1211.6
2015-May-26 17:28N 35°36' E 140°52'1613.4
2015-May-26 16:15N 35°23' E 140°39'1213.7
2015-May-26 15:23N 35°14' E 140°30'1513.7
2015-May-26 14:16N 35°03' E 140°17'912.6
2015-May-26 13:33N 34°58' E 140°07'1711.5
2015-May-26 12:06N 34°54' E 139°48'611.8
2015-May-26 11:34N 34°59' E 139°43'1212.3
2015-May-26 10:33N 35°11' E 139°46'1212.2
2015-May-26 09:33N 35°23' E 139°42'7 6.5
2015-May-26 08:32N 35°29' E 139°45'0 0.0
2015-May-26 07:32N 35°29' E 139°45'0 0.0
2015-May-26 06:32N 35°29' E 139°45'0 0.1
2015-May-26 05:32N 35°29' E 139°45'2 2.0
2015-May-26 04:33N 35°30' E 139°47'1 1.2
2015-May-26 03:26N 35°31' E 139°46'0 0.0
2015-May-25 22:08N 35°31' E 139°46'2 3.9
2015-May-25 21:31N 35°29' E 139°48'0 0.0
2015-May-25 20:31N 35°29' E 139°48'3 2.8
2015-May-25 19:34N 35°27' E 139°47'1111.2
2015-May-25 18:34N 35°15' E 139°47'1412.4
2015-May-25 17:24N 35°01' E 139°44'20 9.3
2015-May-25 15:12N 34°60' E 140°09'2312.1
2015-May-25 13:16N 35°15' E 140°31'40 8.4
2015-May-25 08:29N 35°54' E 140°41'1 0.2
2015-May-25 00:24N 35°55' E 140°41'1 0.4
2015-May-24 21:07N 35°57' E 140°42'3 0.5
2015-May-24 15:20N 35°55' E 140°46'6711.4
2015-May-24 09:29N 34°57' E 140°05'22 7.4
2015-May-24 06:32N 35°13' E 139°47'1212.1
2015-May-24 05:33N 35°24' E 139°43'1312.9
2015-May-24 04:33N 35°31' E 139°57'5 5.0
2015-May-24 03:33N 35°31' E 140°03'0 0.0
2015-May-24 02:29N 35°31' E 140°03'0 0.0
2015-May-24 01:32N 35°31' E 140°03'0 0.0
2015-May-24 00:08N 35°31' E 140°03'1 1.3
2015-May-23 23:33N 35°31' E 140°02'5 5.1
2015-May-23 22:31N 35°29' E 139°56'0 0.0
2015-May-23 21:31N 35°29' E 139°56'5 4.8
2015-May-23 20:34N 35°27' E 139°51'1211.6
2015-May-23 19:33N 35°16' E 139°46'59 7.1
2015-May-23 11:19N 35°37' E 140°53'20 2.8
2015-May-23 04:11N 35°55' E 140°41'59 4.3
2015-May-22 14:31N 35°00' E 140°12'1413.4
2015-May-22 13:29N 34°53' E 139°57'1111.1
2015-May-22 12:28N 34°56' E 139°44'1112.0
2015-May-22 11:33N 35°07' E 139°45'1311.2
2015-May-22 10:25N 35°20' E 139°43'910.8
2015-May-22 09:33N 35°29' E 139°42'2 1.8
2015-May-22 08:20N 35°30' E 139°45'0 0.0
2015-May-22 07:26N 35°30' E 139°45'0 0.0
2015-May-22 05:08N 35°30' E 139°45'0 0.0
2015-May-22 04:05N 35°30' E 139°45'2 4.4
2015-May-22 03:34N 35°30' E 139°47'2 1.5
2015-May-22 02:32N 35°29' E 139°46'0 0.0
2015-May-22 01:29N 35°29' E 139°46'0 0.0
2015-May-22 00:32N 35°29' E 139°46'0 0.0
2015-May-21 23:32N 35°29' E 139°46'0 0.0
2015-May-21 22:32N 35°29' E 139°46'0 0.0
2015-May-21 21:29N 35°29' E 139°46'0 0.0
2015-May-21 20:32N 35°29' E 139°46'0 0.0
2015-May-21 19:32N 35°29' E 139°46'0 0.0
2015-May-21 18:29N 35°29' E 139°46'0 0.1
2015-May-21 17:32N 35°29' E 139°46'0 0.0
2015-May-21 16:29N 35°29' E 139°46'0 0.0
2015-May-21 15:32N 35°29' E 139°46'0 0.0
2015-May-21 14:32N 35°29' E 139°46'0 0.1
2015-May-21 13:32N 35°29' E 139°46'0 0.0
2015-May-21 12:29N 35°29' E 139°46'0 0.0
2015-May-21 11:32N 35°29' E 139°46'0 0.0
2015-May-21 10:32N 35°29' E 139°46'0 0.0
2015-May-21 09:32N 35°29' E 139°46'0 0.0
2015-May-21 08:32N 35°29' E 139°46'0 0.0
2015-May-21 07:29N 35°29' E 139°46'0 0.1
2015-May-21 06:33N 35°29' E 139°46'2 0.5
2015-May-21 02:19N 35°31' E 139°46'4 5.8
2015-May-21 01:33N 35°26' E 139°47'1010.4
2015-May-21 00:34N 35°16' E 139°46'1111.4
2015-May-20 23:33N 35°05' E 139°45'19 8.0
2015-May-20 21:13N 34°57' E 140°06'2612.2
2015-May-20 19:03N 35°14' E 140°31'1912.1
2015-May-20 17:29N 35°29' E 140°45'1112.1
2015-May-20 16:32N 35°38' E 140°54'1712.1
2015-May-20 15:08N 35°55' E 140°55'712.6
2015-May-20 14:32N 36°02' E 140°54'3712.5
2015-May-20 11:32N 36°40' E 141°00'87 2.5
2015-May-19 00:14N 35°16' E 140°32'2313.9
2015-May-18 22:33N 35°00' E 140°11'1313.3
2015-May-18 21:33N 34°53' E 139°57'  

Dump ship's entire track history